Time;durP1;ratioP1;P1;durP2;ratioP2;P2;SDS_P1;SDS_P2;PMS_P1;PMS_P2;Temp;Humidity;BMP_temperature;BMP_pressure;BME280_temperature;BME280_humidity;BME280_pressure;Samples;Min_cycle;Max_cycle;Signal;HPM_P1;HPM_P2
2023/04/18 06:08:44;;;;;;;8.20;4.97;;;10.10;99.90;;;;;;2639194;23;20229;-77
2023/04/18 06:11:10;;;;;;;6.57;4.13;;;10.30;99.90;;;;;;5013357;28;20696;-75
2023/04/18 06:13:37;;;;;;;7.10;3.80;;;10.50;99.90;;;;;;5013906;28;20214;-75
2023/04/18 06:16:04;;;;;;;7.70;4.20;;;10.80;99.90;;;;;;5002521;28;20772;-74
2023/04/18 06:18:31;;;;;;;8.17;4.73;;;10.30;99.90;;;;;;4994078;28;20203;-75
2023/04/18 06:20:58;;;;;;;7.27;4.23;;;10.00;99.90;;;;;;4994436;28;20212;-75
2023/04/18 06:23:25;;;;;;;8.40;3.93;;;9.90;99.90;;;;;;4994644;28;20332;-75
2023/04/18 06:25:53;;;;;;;6.50;3.87;;;10.30;99.90;;;;;;4994242;28;20233;-75
2023/04/18 06:28:20;;;;;;;7.40;4.07;;;10.30;99.90;;;;;;4994231;28;20215;-76
2023/04/18 06:30:47;;;;;;;5.70;3.73;;;10.80;99.90;;;;;;4993631;28;20309;-77
2023/04/18 06:33:14;;;;;;;5.73;3.60;;;11.40;99.90;;;;;;4994238;28;20289;-79
2023/04/18 06:35:41;;;;;;;5.40;3.30;;;11.60;99.90;;;;;;4992094;28;20234;-74
2023/04/18 06:38:08;;;;;;;5.80;3.10;;;12.30;99.90;;;;;;4994286;28;20206;-77
2023/04/18 06:40:35;;;;;;;7.00;3.77;;;12.40;99.90;;;;;;4993574;28;20214;-74
2023/04/18 06:43:03;;;;;;;5.90;3.90;;;12.10;99.90;;;;;;4994078;28;20325;-74
2023/04/18 06:45:30;;;;;;;7.30;3.33;;;12.50;99.90;;;;;;4995421;28;20725;-76
2023/04/18 06:47:58;;;;;;;7.03;3.70;;;13.30;99.90;;;;;;4995596;28;20214;-75
2023/04/18 06:50:25;;;;;;;5.77;3.33;;;13.30;99.90;;;;;;4995703;28;20214;-75
2023/04/18 06:52:52;;;;;;;4.30;3.10;;;13.70;99.90;;;;;;4995849;28;20221;-75
2023/04/18 06:55:19;;;;;;;7.63;3.63;;;14.20;99.90;;;;;;4995656;28;20227;-75
2023/04/18 06:57:46;;;;;;;5.83;3.40;;;13.90;99.90;;;;;;4995498;28;20677;-76
2023/04/18 07:00:15;;;;;;;5.33;3.10;;;13.90;99.90;;;;;;4994963;28;20213;-75
2023/04/18 07:02:42;;;;;;;7.93;3.70;;;14.30;99.90;;;;;;4995256;28;20202;-75
2023/04/18 07:05:09;;;;;;;7.50;3.43;;;14.40;99.90;;;;;;4994950;28;20313;-76
2023/04/18 07:07:36;;;;;;;5.73;3.33;;;14.30;99.90;;;;;;4995205;28;20213;-76
2023/04/18 07:10:03;;;;;;;5.13;3.23;;;14.20;99.90;;;;;;4994772;28;20221;-75
2023/04/18 07:12:30;;;;;;;6.27;3.33;;;13.80;99.90;;;;;;4994905;28;20206;-75
2023/04/18 07:14:57;;;;;;;5.53;3.43;;;14.00;99.90;;;;;;4994961;28;20301;-76
2023/04/18 07:17:25;;;;;;;4.67;3.00;;;14.30;99.90;;;;;;4994662;28;20214;-76
2023/04/18 07:19:52;;;;;;;7.20;3.60;;;14.20;99.90;;;;;;4993738;28;20233;-76
2023/04/18 07:22:18;;;;;;;6.77;3.10;;;14.20;99.90;;;;;;4991078;28;20227;-76
2023/04/18 07:24:45;;;;;;;6.27;3.50;;;14.20;99.90;;;;;;4991939;28;20230;-77
2023/04/18 07:27:12;;;;;;;3.80;2.70;;;14.10;99.90;;;;;;4994500;28;20210;-78
2023/04/18 07:29:39;;;;;;;5.33;3.30;;;14.10;99.90;;;;;;4994485;28;20225;-77
2023/04/18 07:32:06;;;;;;;4.70;3.13;;;14.50;99.90;;;;;;4994240;28;20213;-77
2023/04/18 07:34:35;;;;;;;7.97;3.50;;;14.20;99.90;;;;;;4990412;28;20209;-81
2023/04/18 07:37:01;;;;;;;5.47;3.10;;;14.10;99.90;;;;;;4994194;28;20238;-81
2023/04/18 07:39:30;;;;;;;6.97;3.40;;;13.70;99.90;;;;;;4994054;28;20206;-81
2023/04/18 07:41:57;;;;;;;5.90;3.50;;;13.30;99.90;;;;;;4994508;28;20313;-76
2023/04/18 07:44:24;;;;;;;5.53;3.30;;;13.00;99.90;;;;;;4994146;28;20234;-77
2023/04/18 07:46:52;;;;;;;6.03;3.33;;;12.50;99.90;;;;;;4994346;28;20230;-77
2023/04/18 07:49:18;;;;;;;5.10;3.33;;;12.60;99.90;;;;;;4994191;28;20222;-76
2023/04/18 07:51:47;;;;;;;5.17;3.33;;;12.40;99.90;;;;;;4993844;28;20212;-76
2023/04/18 07:54:14;;;;;;;5.13;2.90;;;12.20;99.90;;;;;;4994136;28;20212;-76
2023/04/18 07:56:41;;;;;;;6.73;3.60;;;11.60;99.90;;;;;;4994273;28;20284;-77
2023/04/18 07:59:08;;;;;;;6.50;3.67;;;11.30;99.90;;;;;;4994395;28;20217;-76
2023/04/18 08:01:34;;;;;;;7.53;3.43;;;11.50;99.90;;;;;;4995205;28;20213;-77
2023/04/18 08:04:01;;;;;;;5.60;3.60;;;11.40;99.90;;;;;;4996802;28;20245;-77
2023/04/18 08:06:28;;;;;;;6.23;3.60;;;11.50;99.90;;;;;;4996825;28;20222;-76
2023/04/18 08:08:57;;;;;;;5.50;3.80;;;12.00;99.90;;;;;;4995387;28;20277;-81
2023/04/18 08:11:24;;;;;;;6.43;3.80;;;12.80;99.90;;;;;;4995353;28;20206;-81
2023/04/18 08:13:51;;;;;;;6.77;3.70;;;12.90;99.90;;;;;;4995100;28;20262;-80
2023/04/18 08:16:18;;;;;;;4.37;3.13;;;13.20;99.90;;;;;;4993586;28;20237;-77
2023/04/18 08:18:45;;;;;;;5.27;3.67;;;13.80;99.90;;;;;;4994009;28;20293;-78
2023/04/18 08:21:11;;;;;;;6.87;3.80;;;13.60;99.90;;;;;;4993737;28;20212;-79
2023/04/18 08:23:38;;;;;;;5.47;3.97;;;13.30;99.90;;;;;;4993214;28;20731;-76
2023/04/18 08:26:07;;;;;;;6.60;3.93;;;13.00;99.90;;;;;;4993897;28;20237;-77
2023/04/18 08:28:33;;;;;;;5.40;3.50;;;12.90;99.90;;;;;;4994609;28;20554;-78
2023/04/18 08:31:00;;;;;;;5.17;3.63;;;13.10;99.90;;;;;;4993299;28;20206;-77
2023/04/18 08:33:28;;;;;;;7.57;4.20;;;13.50;99.90;;;;;;4993797;28;20253;-80
2023/04/18 08:35:55;;;;;;;6.27;4.17;;;13.90;99.90;;;;;;4993235;28;20231;-81
2023/04/18 08:38:22;;;;;;;6.13;4.23;;;14.10;99.90;;;;;;4994166;28;20213;-81
2023/04/18 08:40:48;;;;;;;6.60;4.10;;;14.50;99.90;;;;;;4993281;28;20206;-81
2023/04/18 08:43:18;;;;;;;5.17;3.80;;;14.80;99.90;;;;;;4994038;28;20207;-80
2023/04/18 08:45:46;;;;;;;5.43;3.40;;;14.70;99.90;;;;;;4993456;28;20232;-81
2023/04/18 08:48:13;;;;;;;6.37;3.90;;;14.30;99.90;;;;;;4993559;28;20293;-80
2023/04/18 08:50:40;;;;;;;7.33;4.17;;;13.40;99.90;;;;;;4993490;28;20206;-81
2023/04/18 08:53:09;;;;;;;5.93;4.13;;;13.00;99.90;;;;;;4993734;28;20210;-80
2023/04/18 08:55:36;;;;;;;6.57;4.27;;;13.60;99.90;;;;;;4993447;28;20235;-80
2023/04/18 08:58:04;;;;;;;6.13;3.97;;;14.00;99.90;;;;;;4992518;28;20210;-78
2023/04/18 09:00:32;;;;;;;6.10;4.20;;;14.30;99.90;;;;;;4993008;28;20206;-79
2023/04/18 09:02:59;;;;;;;6.03;4.13;;;14.60;99.90;;;;;;4992624;28;20208;-80
2023/04/18 09:05:27;;;;;;;5.83;3.77;;;14.70;99.90;;;;;;4992320;28;20249;-79
2023/04/18 09:07:55;;;;;;;5.93;3.67;;;14.50;99.90;;;;;;4991930;28;20297;-81
2023/04/18 09:10:27;;;;;;;6.40;3.70;;;14.50;99.90;;;;;;4992860;28;20210;-80
2023/04/18 09:12:55;;;;;;;5.27;3.63;;;14.70;99.90;;;;;;4992885;28;20257;-80
2023/04/18 09:15:25;;;;;;;6.67;3.97;;;15.00;99.90;;;;;;4993102;28;20572;-79
2023/04/18 09:17:56;;;;;;;7.93;3.77;;;15.00;99.90;;;;;;4992750;28;20324;-80
2023/04/18 09:20:33;;;;;;;7.33;4.03;;;14.90;99.90;;;;;;4993208;28;20206;-81
2023/04/18 09:23:01;;;;;;;6.60;4.20;;;15.00;99.90;;;;;;4993477;28;20345;-81
2023/04/18 09:25:33;;;;;;;5.10;3.80;;;14.40;99.90;;;;;;4993160;28;20286;-80
2023/04/18 09:28:01;;;;;;;7.00;4.10;;;14.10;99.90;;;;;;4993124;28;20213;-79
2023/04/18 09:30:38;;;;;;;10.90;4.53;;;13.70;99.90;;;;;;4993607;28;20317;-80
2023/04/18 09:33:09;;;;;;;5.60;3.80;;;13.50;99.90;;;;;;4992806;28;20758;-80
2023/04/18 09:35:36;;;;;;;8.90;4.87;;;13.50;99.90;;;;;;4993051;28;20289;-80
2023/04/18 09:38:03;;;;;;;6.20;3.93;;;13.70;99.90;;;;;;4993176;28;20222;-79
2023/04/18 09:40:30;;;;;;;6.80;3.90;;;13.30;99.90;;;;;;4992964;28;20670;-81
2023/04/18 09:42:57;;;;;;;9.70;4.80;;;13.40;99.90;;;;;;4994701;28;20210;-81
2023/04/18 09:45:25;;;;;;;7.80;4.20;;;13.30;99.90;;;;;;4996391;28;20234;-80
2023/04/18 09:47:53;;;;;;;9.80;4.63;;;13.30;99.90;;;;;;4996655;28;20213;-78
2023/04/18 09:50:21;;;;;;;7.53;4.90;;;13.60;99.90;;;;;;4996551;28;20234;-81
2023/04/18 09:52:48;;;;;;;6.93;4.57;;;13.80;99.90;;;;;;4997030;28;20692;-80
2023/04/18 09:55:16;;;;;;;9.40;4.70;;;14.00;99.90;;;;;;4996742;28;20237;-79
2023/04/18 09:57:45;;;;;;;9.60;5.40;;;14.10;99.90;;;;;;4996790;28;20206;-79
2023/04/18 10:00:19;;;;;;;8.53;4.90;;;14.00;99.90;;;;;;4995882;28;20662;-79
2023/04/18 10:02:50;;;;;;;8.30;4.93;;;13.80;99.90;;;;;;4995765;28;20206;-81
2023/04/18 10:05:19;;;;;;;8.80;4.70;;;13.70;99.90;;;;;;4995720;28;20245;-77
2023/04/18 10:07:49;;;;;;;8.40;5.33;;;13.80;99.90;;;;;;4996061;28;20283;-79
2023/04/18 10:10:16;;;;;;;7.30;4.60;;;13.60;99.90;;;;;;4996086;28;20213;-79
2023/04/18 10:12:46;;;;;;;8.37;5.07;;;13.60;99.90;;;;;;4995812;28;20721;-77
2023/04/18 10:15:15;;;;;;;10.87;4.97;;;13.40;99.90;;;;;;4995929;28;20237;-81
2023/04/18 10:17:43;;;;;;;8.97;4.70;;;13.50;99.90;;;;;;4995905;28;20213;-79
2023/04/18 10:20:18;;;;;;;7.63;4.43;;;13.60;99.90;;;;;;4996172;28;20309;-79
2023/04/18 10:22:47;;;;;;;12.23;4.77;;;13.80;99.90;;;;;;4996071;28;20212;-81
2023/04/18 10:25:34;;;;;;;8.57;5.10;;;14.10;99.90;;;;;;4995674;28;20234;-79
2023/04/18 10:28:03;;;;;;;9.73;4.80;;;14.30;99.90;;;;;;4995209;28;20614;-79
2023/04/18 10:31:02;;;;;;;8.17;5.27;;;13.90;99.90;;;;;;4995574;28;20754;-75
2023/04/18 10:33:32;;;;;;;7.83;4.60;;;13.80;99.90;;;;;;4973763;28;20206;-79
2023/04/18 10:36:02;;;;;;;6.07;3.93;;;13.70;99.90;;;;;;4991164;28;20237;-75
2023/04/18 10:38:30;;;;;;;6.63;3.87;;;13.50;99.90;;;;;;4995127;28;20214;-75
2023/04/18 10:41:14;;;;;;;7.83;4.10;;;13.50;99.90;;;;;;4994674;28;20213;-76
2023/04/18 10:44:13;;;;;;;6.57;3.67;;;13.70;99.90;;;;;;4995287;28;20663;-73
2023/04/18 10:46:41;;;;;;;9.83;4.07;;;13.70;99.90;;;;;;4989438;28;20407;-73
2023/04/18 10:49:15;;;;;;;7.60;3.90;;;13.50;99.90;;;;;;4994967;28;20675;-73
2023/04/18 10:51:43;;;;;;;5.90;3.70;;;13.40;99.90;;;;;;4988873;28;20205;-75
2023/04/18 10:54:13;;;;;;;5.73;3.67;;;13.20;99.90;;;;;;4994857;28;20215;-73
2023/04/18 10:56:40;;;;;;;5.30;3.40;;;13.10;99.90;;;;;;4994722;28;20225;-74
2023/04/18 10:59:11;;;;;;;7.30;4.37;;;13.20;99.90;;;;;;4994843;28;20570;-74
2023/04/18 11:01:41;;;;;;;6.10;3.70;;;13.60;99.90;;;;;;4994130;28;20206;-74
2023/04/18 11:04:12;;;;;;;6.53;3.87;;;13.80;99.90;;;;;;4994764;28;20232;-74
2023/04/18 11:06:48;;;;;;;6.40;4.10;;;14.10;99.90;;;;;;4994579;28;20223;-75
2023/04/18 11:09:16;;;;;;;6.23;4.00;;;14.10;99.90;;;;;;4994379;28;20210;-73
2023/04/18 11:11:43;;;;;;;5.37;3.93;;;14.30;99.90;;;;;;4994674;28;20297;-74
2023/04/18 11:14:11;;;;;;;7.27;4.77;;;14.20;99.90;;;;;;4994741;28;20202;-74
2023/04/18 11:16:38;;;;;;;6.30;4.07;;;14.30;99.90;;;;;;4994874;28;20231;-74
2023/04/18 11:19:19;;;;;;;5.77;4.20;;;14.40;99.90;;;;;;4994883;28;20265;-73
2023/04/18 11:21:45;;;;;;;9.13;3.93;;;14.30;99.90;;;;;;4994021;28;20559;-74
2023/04/18 11:24:20;;;;;;;5.70;3.93;;;14.50;99.90;;;;;;4994340;28;20611;-74
2023/04/18 11:26:49;;;;;;;5.93;3.90;;;14.30;99.90;;;;;;4993333;28;20232;-74
2023/04/18 11:29:17;;;;;;;7.70;3.73;;;13.80;99.90;;;;;;4991621;28;20213;-74
2023/04/18 11:31:50;;;;;;;6.27;4.00;;;13.30;99.90;;;;;;4992809;28;20659;-74
2023/04/18 11:34:17;;;;;;;6.60;4.13;;;12.90;99.90;;;;;;4993086;28;20207;-73
2023/04/18 11:36:48;;;;;;;5.47;3.43;;;12.90;99.90;;;;;;4992963;28;20648;-73
2023/04/18 11:39:14;;;;;;;6.77;4.07;;;13.30;99.90;;;;;;4992824;28;20210;-74
2023/04/18 11:41:43;;;;;;;6.83;3.90;;;13.50;99.90;;;;;;4992980;28;20215;-73
2023/04/18 11:44:11;;;;;;;5.83;3.33;;;13.70;99.90;;;;;;4993546;28;20299;-73
2023/04/18 11:46:38;;;;;;;6.33;3.40;;;13.60;99.90;;;;;;4992568;28;20218;-73
2023/04/18 11:49:05;;;;;;;5.40;3.53;;;13.50;99.90;;;;;;4992384;28;20207;-74
2023/04/18 11:51:34;;;;;;;4.93;3.47;;;13.50;99.90;;;;;;4992862;28;20213;-74
2023/04/18 11:54:01;;;;;;;4.60;3.57;;;13.50;99.90;;;;;;4992620;28;20216;-73
2023/04/18 11:56:28;;;;;;;5.20;3.17;;;13.50;99.90;;;;;;4992735;28;20329;-74
2023/04/18 11:58:55;;;;;;;6.67;3.53;;;13.80;99.90;;;;;;4992331;28;20242;-74
2023/04/18 12:01:26;;;;;;;5.13;3.43;;;13.90;99.90;;;;;;4992392;28;20206;-73
2023/04/18 12:04:02;;;;;;;7.03;3.63;;;14.00;99.90;;;;;;4992403;28;20213;-74
2023/04/18 12:06:47;;;;;;;5.73;3.20;;;14.00;99.90;;;;;;4992066;28;20250;-74
2023/04/18 12:09:14;;;;;;;6.50;3.40;;;14.00;99.90;;;;;;4992929;28;20224;-75
2023/04/18 12:11:41;;;;;;;4.40;2.87;;;13.80;99.90;;;;;;4992239;28;20217;-72
2023/04/18 12:14:19;;;;;;;5.60;3.60;;;13.80;99.90;;;;;;4992447;28;20229;-73
2023/04/18 12:16:49;;;;;;;6.67;3.20;;;13.90;99.90;;;;;;4995083;28;20226;-73
2023/04/18 12:19:16;;;;;;;3.80;2.40;;;14.10;99.90;;;;;;4998387;28;20210;-74
2023/04/18 12:21:55;;;;;;;5.73;2.93;;;14.20;99.90;;;;;;5002456;28;20237;-73
2023/04/18 12:24:24;;;;;;;4.67;2.90;;;14.20;99.90;;;;;;4992408;28;20205;-74
2023/04/18 12:26:51;;;;;;;4.90;2.80;;;14.40;99.90;;;;;;4992162;28;20229;-73
2023/04/18 12:29:17;;;;;;;5.33;2.90;;;14.40;99.90;;;;;;4991768;28;20301;-73
2023/04/18 12:31:44;;;;;;;3.77;2.40;;;14.30;99.90;;;;;;4992436;28;20212;-73
2023/04/18 12:34:13;;;;;;;3.53;2.50;;;14.10;99.90;;;;;;4992482;28;20596;-74
2023/04/18 12:36:39;;;;;;;4.47;2.93;;;14.20;99.90;;;;;;4991776;28;20715;-73
2023/04/18 12:39:06;;;;;;;4.03;2.80;;;14.20;99.90;;;;;;4991508;28;20207;-75
2023/04/18 12:41:33;;;;;;;4.60;2.80;;;14.10;99.90;;;;;;4991970;28;20214;-73
2023/04/18 12:44:00;;;;;;;3.47;2.47;;;14.00;99.90;;;;;;4991932;28;20206;-73
2023/04/18 12:46:27;;;;;;;3.17;2.20;;;13.80;99.90;;;;;;4992216;28;20472;-73
2023/04/18 12:48:55;;;;;;;5.17;2.40;;;13.90;99.90;;;;;;4991557;28;20731;-73
2023/04/18 12:51:25;;;;;;;3.80;2.60;;;14.10;99.90;;;;;;4992247;28;20214;-73
2023/04/18 12:53:51;;;;;;;2.87;2.43;;;14.30;99.90;;;;;;4991840;28;20215;-74
2023/04/18 12:56:18;;;;;;;4.27;2.70;;;14.40;99.90;;;;;;4991767;28;20309;-73
2023/04/18 12:58:45;;;;;;;4.23;2.43;;;14.50;99.90;;;;;;4992373;28;20580;-73
2023/04/18 13:01:12;;;;;;;4.20;2.27;;;14.80;99.90;;;;;;4991824;28;20570;-74
2023/04/18 13:03:39;;;;;;;4.03;2.50;;;14.70;99.90;;;;;;4991917;28;20241;-73
2023/04/18 13:06:07;;;;;;;3.33;2.30;;;14.70;99.90;;;;;;4991560;28;20646;-72
2023/04/18 13:08:36;;;;;;;3.80;2.57;;;14.50;99.90;;;;;;4991592;28;20306;-73
2023/04/18 13:11:03;;;;;;;3.00;2.20;;;14.40;99.90;;;;;;4991726;28;20679;-74
2023/04/18 13:13:29;;;;;;;3.90;2.57;;;14.20;99.90;;;;;;4992223;28;20297;-72
2023/04/18 13:15:56;;;;;;;3.57;2.30;;;14.10;99.90;;;;;;4991712;28;20587;-73
2023/04/18 13:18:23;;;;;;;4.67;2.97;;;14.00;99.90;;;;;;4995187;28;20301;-73
2023/04/18 13:20:50;;;;;;;4.57;2.57;;;14.00;99.90;;;;;;4995602;28;20237;-72
2023/04/18 13:23:17;;;;;;;4.53;2.50;;;13.80;99.90;;;;;;4995710;28;20322;-73
2023/04/18 13:25:45;;;;;;;3.80;2.60;;;13.80;99.90;;;;;;4995371;28;20244;-72
2023/04/18 13:28:12;;;;;;;7.00;2.90;;;13.70;99.90;;;;;;4995477;28;20301;-72
2023/04/18 13:30:39;;;;;;;3.53;2.40;;;13.60;99.90;;;;;;4995513;28;20394;-73
2023/04/18 13:33:05;;;;;;;3.97;2.57;;;13.60;99.90;;;;;;4995652;28;20266;-73
2023/04/18 13:35:32;;;;;;;4.40;2.80;;;13.80;99.90;;;;;;4995546;28;20650;-73
2023/04/18 13:37:59;;;;;;;5.10;3.50;;;13.90;99.90;;;;;;4995918;28;20207;-76
2023/04/18 13:40:26;;;;;;;4.30;2.90;;;14.00;99.90;;;;;;4995913;28;20213;-72
2023/04/18 13:42:54;;;;;;;5.73;3.70;;;14.20;99.90;;;;;;4996390;28;20211;-73
2023/04/18 13:45:21;;;;;;;5.03;3.37;;;14.30;99.90;;;;;;4995970;28;20238;-73
2023/04/18 13:47:48;;;;;;;5.00;3.60;;;14.30;99.90;;;;;;4995967;28;20210;-74
2023/04/18 13:50:14;;;;;;;7.10;4.17;;;14.60;99.90;;;;;;4996533;28;20686;-74
2023/04/18 13:52:41;;;;;;;5.37;4.10;;;14.80;99.90;;;;;;4996479;28;20210;-76
2023/04/18 13:55:11;;;;;;;6.90;4.63;;;15.00;99.90;;;;;;4996403;28;20574;-74
2023/04/18 13:57:37;;;;;;;5.90;4.30;;;15.10;99.90;;;;;;4996382;28;20210;-74
2023/04/18 14:00:08;;;;;;;4.87;3.77;;;14.90;99.90;;;;;;4996193;28;20213;-73
2023/04/18 14:02:34;;;;;;;10.03;4.27;;;14.50;99.90;;;;;;4996290;28;20293;-74
2023/04/18 14:05:01;;;;;;;6.73;4.77;;;14.70;99.90;;;;;;4996158;28;20227;-73
2023/04/18 14:07:28;;;;;;;4.90;3.57;;;14.70;99.90;;;;;;4996127;28;20206;-73
2023/04/18 14:09:55;;;;;;;5.53;3.93;;;14.70;99.90;;;;;;4996057;28;20229;-74
2023/04/18 14:12:21;;;;;;;6.20;4.07;;;14.80;99.90;;;;;;4996345;28;20202;-74
2023/04/18 14:14:48;;;;;;;5.03;3.43;;;14.90;99.90;;;;;;4995956;28;20210;-74
2023/04/18 14:17:16;;;;;;;5.43;3.40;;;15.00;99.90;;;;;;4996102;28;20206;-75
2023/04/18 14:19:43;;;;;;;5.33;3.87;;;15.10;99.90;;;;;;4996022;28;20293;-74
2023/04/18 14:22:10;;;;;;;6.87;3.87;;;15.30;99.90;;;;;;4996381;28;20211;-74
2023/04/18 14:24:37;;;;;;;8.13;4.07;;;15.40;99.90;;;;;;4995817;28;20238;-74
2023/04/18 14:27:04;;;;;;;5.93;3.70;;;15.40;99.90;;;;;;4995664;28;20713;-74
2023/04/18 14:29:31;;;;;;;4.97;3.40;;;15.40;99.90;;;;;;4995333;28;20218;-75
2023/04/18 14:31:58;;;;;;;5.03;3.30;;;15.30;99.90;;;;;;4996128;28;20541;-74
2023/04/18 14:34:26;;;;;;;6.77;3.63;;;15.10;99.90;;;;;;4995697;28;20210;-74
2023/04/18 14:36:52;;;;;;;4.70;3.20;;;15.10;99.90;;;;;;4995465;28;20237;-74
2023/04/18 14:39:20;;;;;;;6.80;3.90;;;15.10;99.90;;;;;;4995073;28;20213;-74
2023/04/18 14:41:47;;;;;;;6.80;4.20;;;15.20;99.90;;;;;;4995640;28;20571;-74
2023/04/18 14:44:14;;;;;;;5.47;3.80;;;15.20;99.90;;;;;;4995439;28;20245;-74
2023/04/18 14:46:42;;;;;;;4.83;3.80;;;15.30;99.90;;;;;;4995438;28;20305;-74
2023/04/18 14:49:09;;;;;;;7.23;4.47;;;15.20;99.90;;;;;;4996081;28;20226;-74
2023/04/18 14:51:37;;;;;;;5.73;4.10;;;15.10;99.90;;;;;;4995352;28;20229;-74
2023/04/18 14:54:04;;;;;;;5.60;3.77;;;15.10;99.90;;;;;;4995609;28;20207;-74
2023/04/18 14:56:31;;;;;;;5.90;4.30;;;15.20;99.90;;;;;;4994989;28;20698;-74
2023/04/18 14:58:57;;;;;;;6.43;4.13;;;15.00;99.90;;;;;;4995374;28;20210;-74
2023/04/18 15:01:25;;;;;;;6.83;4.33;;;15.00;99.90;;;;;;4995148;28;20293;-74
2023/04/18 15:03:51;;;;;;;7.70;4.20;;;15.20;99.90;;;;;;4995411;28;20301;-74
2023/04/18 15:06:18;;;;;;;6.70;4.30;;;15.10;99.90;;;;;;4995032;28;20238;-74
2023/04/18 15:08:46;;;;;;;7.27;4.10;;;15.20;99.90;;;;;;4995004;28;20221;-74
2023/04/18 15:11:13;;;;;;;6.70;4.17;;;15.20;99.90;;;;;;4994803;28;20209;-74
2023/04/18 15:13:40;;;;;;;6.33;4.27;;;15.20;99.90;;;;;;4994782;28;20217;-74
2023/04/18 15:16:07;;;;;;;7.77;4.00;;;15.00;99.90;;;;;;4995162;28;20230;-74
2023/04/18 15:18:34;;;;;;;7.77;4.50;;;15.00;99.90;;;;;;4995079;28;20207;-74
2023/04/18 15:21:01;;;;;;;6.83;4.73;;;14.90;99.90;;;;;;4994770;28;20210;-74
2023/04/18 15:23:28;;;;;;;7.77;4.90;;;14.80;99.90;;;;;;4994979;28;20574;-74
2023/04/18 15:25:56;;;;;;;7.17;4.80;;;14.60;99.90;;;;;;4994507;28;20233;-74
2023/04/18 15:28:23;;;;;;;7.90;4.70;;;14.70;99.90;;;;;;4994593;28;20766;-74
2023/04/18 15:30:49;;;;;;;6.37;4.60;;;14.70;99.90;;;;;;4994525;28;20567;-74
2023/04/18 15:33:17;;;;;;;6.33;4.40;;;14.80;99.90;;;;;;4994672;28;20574;-74
2023/04/18 15:35:44;;;;;;;6.63;4.60;;;14.80;99.90;;;;;;4994561;28;20231;-74
2023/04/18 15:38:11;;;;;;;7.50;5.20;;;14.70;99.90;;;;;;4994636;28;20285;-74
2023/04/18 15:40:38;;;;;;;7.97;5.00;;;14.70;99.90;;;;;;4993421;28;20203;-74
2023/04/18 15:43:06;;;;;;;6.53;4.23;;;14.70;99.90;;;;;;4994186;28;20209;-74
2023/04/18 15:45:33;;;;;;;7.53;5.00;;;14.90;99.90;;;;;;4994160;28;20313;-74
2023/04/18 15:48:00;;;;;;;7.47;5.03;;;14.70;99.90;;;;;;4994496;28;20214;-74
2023/04/18 15:50:27;;;;;;;6.53;4.57;;;14.60;99.90;;;;;;4994154;28;20301;-74
2023/04/18 15:52:55;;;;;;;7.43;5.40;;;14.40;99.90;;;;;;4994157;28;20217;-74
2023/04/18 15:55:22;;;;;;;7.83;5.07;;;14.40;99.90;;;;;;4994040;28;20337;-74
2023/04/18 15:57:48;;;;;;;7.97;4.87;;;14.30;99.90;;;;;;4993957;28;20210;-74
2023/04/18 16:00:18;;;;;;;7.77;4.90;;;14.30;99.90;;;;;;4994296;28;20210;-74
2023/04/18 16:02:46;;;;;;;7.53;4.60;;;14.40;99.90;;;;;;4993937;28;20210;-74
2023/04/18 16:05:13;;;;;;;7.47;5.13;;;14.50;99.90;;;;;;4993573;28;20714;-74
2023/04/18 16:07:40;;;;;;;8.00;4.80;;;14.60;99.90;;;;;;4993769;28;20329;-74
2023/04/18 16:10:09;;;;;;;6.27;4.47;;;14.50;99.90;;;;;;4993900;28;20655;-74
2023/04/18 16:12:36;;;;;;;8.67;5.07;;;14.30;99.90;;;;;;4993640;28;20679;-73
2023/04/18 16:15:05;;;;;;;7.13;4.50;;;14.30;99.90;;;;;;4994119;28;20610;-74
2023/04/18 16:17:33;;;;;;;7.90;4.70;;;14.40;99.90;;;;;;4994294;28;20221;-74
2023/04/18 16:20:00;;;;;;;7.50;5.07;;;14.60;99.90;;;;;;4994230;28;20206;-74
2023/04/18 16:22:27;;;;;;;8.70;5.03;;;14.70;99.90;;;;;;4994155;28;20698;-74
2023/04/18 16:24:54;;;;;;;8.17;5.20;;;14.60;99.90;;;;;;4994107;28;20206;-74
2023/04/18 16:27:21;;;;;;;8.53;4.97;;;14.40;99.90;;;;;;4993713;28;20245;-74
2023/04/18 16:29:47;;;;;;;7.00;4.57;;;14.50;99.90;;;;;;4994329;28;20206;-73
2023/04/18 16:32:14;;;;;;;7.93;4.90;;;14.30;99.90;;;;;;4994009;28;20297;-74
2023/04/18 16:34:42;;;;;;;6.70;4.87;;;14.40;99.90;;;;;;4993706;28;20202;-74
2023/04/18 16:37:09;;;;;;;7.07;4.90;;;14.40;99.90;;;;;;4993326;28;20549;-74
2023/04/18 16:39:36;;;;;;;8.17;4.93;;;14.40;99.90;;;;;;4993218;28;20207;-74
2023/04/18 16:42:03;;;;;;;8.40;5.17;;;14.50;99.90;;;;;;4993484;28;20214;-74
2023/04/18 16:44:31;;;;;;;7.33;4.97;;;14.40;99.90;;;;;;4993631;28;20207;-74
2023/04/18 16:46:58;;;;;;;9.03;5.23;;;14.40;99.90;;;;;;4993229;28;20272;-74
2023/04/18 16:49:25;;;;;;;9.07;4.80;;;14.40;99.90;;;;;;4993687;28;20206;-74
2023/04/18 16:51:53;;;;;;;8.00;5.43;;;14.30;99.90;;;;;;4993066;28;20460;-74
2023/04/18 16:54:20;;;;;;;10.00;5.37;;;14.20;99.90;;;;;;4993614;28;20313;-72
2023/04/18 16:56:47;;;;;;;7.67;4.97;;;14.10;99.90;;;;;;4993346;28;20313;-72
2023/04/18 16:59:14;;;;;;;8.20;4.83;;;14.00;99.90;;;;;;4992971;28;20742;-72
2023/04/18 17:01:40;;;;;;;8.83;5.50;;;14.00;99.90;;;;;;4993347;28;20214;-72
2023/04/18 17:04:07;;;;;;;8.13;5.20;;;13.90;99.90;;;;;;4992678;28;20206;-73
2023/04/18 17:06:34;;;;;;;6.73;5.00;;;14.00;99.90;;;;;;4992695;28;20645;-73
2023/04/18 17:09:04;;;;;;;10.10;5.40;;;14.00;99.90;;;;;;4993256;28;20250;-74
2023/04/18 17:11:33;;;;;;;10.40;6.00;;;14.00;99.90;;;;;;4993151;28;20203;-73
2023/04/18 17:14:00;;;;;;;9.37;5.70;;;13.90;99.90;;;;;;4993298;28;20211;-73
2023/04/18 17:16:27;;;;;;;9.13;5.77;;;13.90;99.90;;;;;;4992993;28;20237;-73
2023/04/18 17:18:54;;;;;;;8.40;5.73;;;13.80;99.90;;;;;;4992702;28;20216;-73
2023/04/18 17:21:21;;;;;;;9.03;6.27;;;13.70;99.90;;;;;;4993227;28;20754;-73
2023/04/18 17:23:47;;;;;;;9.10;5.70;;;13.60;99.90;;;;;;4993263;28;20217;-73
2023/04/18 17:26:16;;;;;;;12.30;6.53;;;13.70;99.90;;;;;;4993443;28;20239;-73
2023/04/18 17:28:42;;;;;;;11.20;6.37;;;13.60;99.90;;;;;;4993424;28;20206;-73
2023/04/18 17:31:09;;;;;;;8.13;6.27;;;13.60;99.90;;;;;;4992752;28;20206;-73
2023/04/18 17:33:36;;;;;;;10.50;7.07;;;13.60;99.90;;;;;;4992830;28;20202;-74
2023/04/18 17:36:05;;;;;;;9.30;5.73;;;13.60;99.90;;;;;;4992970;28;20729;-73
2023/04/18 17:38:32;;;;;;;8.10;5.80;;;13.50;99.90;;;;;;4993069;28;20206;-74
2023/04/18 17:41:00;;;;;;;10.57;6.53;;;13.40;99.90;;;;;;4992822;28;20222;-73
2023/04/18 17:43:28;;;;;;;8.53;5.87;;;13.30;99.90;;;;;;4992390;28;20220;-73
2023/04/18 17:45:56;;;;;;;9.17;6.07;;;13.30;99.90;;;;;;4992625;28;20223;-75
2023/04/18 17:48:23;;;;;;;9.17;5.93;;;13.40;99.90;;;;;;4992672;28;20722;-74
2023/04/18 17:50:50;;;;;;;9.20;6.03;;;13.50;99.90;;;;;;4993123;28;20217;-74
2023/04/18 17:53:17;;;;;;;8.30;5.93;;;13.40;99.90;;;;;;4992729;28;20203;-74
2023/04/18 17:55:47;;;;;;;8.73;5.70;;;13.30;99.90;;;;;;4992611;28;20241;-74
2023/04/18 17:58:15;;;;;;;9.33;5.80;;;13.30;99.90;;;;;;4992658;28;20214;-74
2023/04/18 18:00:43;;;;;;;10.73;5.97;;;13.20;99.90;;;;;;4992749;28;20675;-74
2023/04/18 18:03:13;;;;;;;10.77;6.87;;;13.10;99.90;;;;;;4992935;28;20678;-74
2023/04/18 18:05:39;;;;;;;11.30;6.80;;;13.20;99.90;;;;;;4996360;28;20230;-74
2023/04/18 18:08:06;;;;;;;10.97;6.50;;;13.20;99.90;;;;;;4996365;28;20599;-74
2023/04/18 18:10:33;;;;;;;10.00;6.07;;;13.20;99.90;;;;;;4995889;28;20353;-74
2023/04/18 18:13:00;;;;;;;11.33;6.43;;;13.20;99.90;;;;;;4995986;28;20207;-73
2023/04/18 18:15:27;;;;;;;9.63;6.07;;;13.00;99.90;;;;;;4996052;28;20222;-74
2023/04/18 18:17:55;;;;;;;12.20;6.63;;;13.00;99.90;;;;;;4996395;28;20305;-74
2023/04/18 18:20:22;;;;;;;12.27;7.77;;;12.80;99.90;;;;;;4996173;28;20234;-74
2023/04/18 18:22:49;;;;;;;13.10;7.60;;;12.80;99.90;;;;;;4995873;28;20207;-74
2023/04/18 18:25:16;;;;;;;12.20;7.27;;;12.80;99.90;;;;;;4996132;28;20707;-73
2023/04/18 18:27:43;;;;;;;12.07;7.00;;;12.80;99.90;;;;;;4996283;28;20234;-73
2023/04/18 18:30:17;;;;;;;13.53;7.37;;;12.70;99.90;;;;;;4993400;28;20198;-73
2023/04/18 18:32:44;;;;;;;14.67;7.83;;;12.60;99.90;;;;;;4994653;28;20210;-76
2023/04/18 18:35:13;;;;;;;13.47;7.90;;;12.60;99.90;;;;;;4995612;28;20230;-76
2023/04/18 18:37:40;;;;;;;13.93;7.13;;;12.60;99.90;;;;;;4995013;28;20206;-76
2023/04/18 18:40:08;;;;;;;10.57;7.47;;;12.50;99.90;;;;;;4995662;28;20210;-73
2023/04/18 18:42:36;;;;;;;13.07;7.90;;;12.50;99.90;;;;;;4994467;28;20667;-73
2023/04/18 18:45:03;;;;;;;13.13;7.43;;;12.50;99.90;;;;;;4992756;28;20313;-74
2023/04/18 18:47:30;;;;;;;13.07;7.30;;;12.40;99.90;;;;;;4993356;28;20262;-74
2023/04/18 18:49:57;;;;;;;12.27;7.23;;;12.40;99.90;;;;;;4994857;28;20211;-74
2023/04/18 18:52:26;;;;;;;12.63;7.47;;;12.40;99.90;;;;;;4995027;28;20210;-74
2023/04/18 18:54:53;;;;;;;14.17;8.03;;;12.30;99.90;;;;;;4995121;28;20563;-74
2023/04/18 18:57:20;;;;;;;11.90;7.73;;;12.30;99.90;;;;;;4994543;28;20741;-74